Terminal Aerodrome Forecast
Issued by NWS

Home | Current Version | Previous Version | Text Only | Print | Product List | Glossary On
Versions: 1 2 3 4 5 6 7 8 9 10 11 12
474
FTUS45 KPIH 131730
TAFSUN
TAF
KSUN 131730Z 1318/1418 VRB05KT P6SM SCT120
     FM132000 24012KT P6SM SCT120
     FM140300 32012KT P6SM SCT060 BKN110
     FM140600 32010KT P6SM VCSH SCT025 BKN040=

USA.gov is the U.S. government's official web portal to all federal, state and local government web resources and services.